Airfield :
LOGIN :

Register | Disclaimer

   EN    FR    IT 

 










Legend :    VFR   Marginal VFR   IFR   Intensive IFR   Very Intensive IFR
Visi :
Ceiling :
>= 8 km
>= 3000ft
5 to 8 km
1000 to 3000 ft
1500m to 5 km
500 to 1000 ft
800 to 1500m
200 to 500 ft
< 800m
< 200 ft
Symbols :   Thunderstorms  Fog  Heavy snow  Heavy precipitations  Wind > 20 kt
SIGMETs :     Misc.  Thunderstorms  Icing  Turbulence  Mountain Waves  Volcanic Ashes






- Airport Elevation : 135 ft
- IATA code : EDI


EGPH - Edinburgh

CURRENT METAR :
  • 231850Z VRB02KT 3900 RADZ SCT003 BKN006 OVC012 12/11 Q1011

EXPIRED METARs :
  • 231820Z 30003KT 240V360 3600 RADZ SCT003 BKN006 12/11 Q1011
  • 231750Z VRB03KT 3800 -RADZ FEW003 BKN008 12/11 Q1011
  • 231720Z VRB02KT 5000 -RADZ SCT003 SCT009 12/11 Q1011
  • 231650Z 32004KT 250V020 3600 -DZ OVC005 12/11 Q1011
  • 231620Z 31004KT 250V020 5000 -DZ OVC005 12/11 Q1010
  • 231550Z 32004KT 250V040 5000 -DZ BKN006 12/11 Q1010
  • 231520Z 32003KT 280V030 6000 -RA BKN006 BKN017 12/11 Q1010 REDZ
  • 231450Z 34003KT 270V030 3000 DZ BKN004 OVC019 12/12 Q1010
  • 231420Z 35004KT 250V050 4900 -RADZ SCT006 OVC017 12/12 Q1010
  • 231350Z 35005KT 300V020 4800 -DZ FEW004 OVC018 12/12 Q1010 REDZ

TAF TAF EGPH
Valid from the 23 at 18:00 until the 24 at 18:00 UTC


231659Z 2318/2418 33007KT 9999 SCT006 BKN015
TEMPO 2318/2412 6000 -RADZ BKN006
PROB40
TEMPO 2318/2409 3000 RADZ BKN004
PROB40
TEMPO 2414/2418 6000 SHRA BKN014
ATIS : +44 131 339 2823



MET'MAP, your aeronautical weather chart ! - Copyright ORBIFLY December 2007 - Disclaimer

ORBIFLY MET'MAP TEAM :

Programming & Development : Alexandra Zaïnal
Original concept : Baudouin d'Aumeries
Technical & hardware support : Manuel Goepfert
Assistance : Marc-Olivier Méhu




SOURCES & CREDITS :

   NOAA